Time;durP1;ratioP1;P1;durP2;ratioP2;P2;SDS_P1;SDS_P2;PMS_P1;PMS_P2;Temp;Humidity;BMP_temperature;BMP_pressure;BME280_temperature;BME280_humidity;BME280_pressure;Samples;Min_cycle;Max_cycle;Signal;HPM_P1;HPM_P2
2022/01/01 00:00:33;;;;;;;190.27;145.10;;;9.50;99.90;;;;;;5016902;28;21018;-72
2022/01/01 00:03:00;;;;;;;167.47;133.73;;;9.50;99.90;;;;;;5009879;28;20972;-71
2022/01/01 00:05:27;;;;;;;91.30;71.47;;;9.50;99.90;;;;;;5010189;28;20450;-71
2022/01/01 00:07:57;;;;;;;70.40;58.40;;;9.50;99.90;;;;;;5010015;28;20479;-71
2022/01/01 00:10:24;;;;;;;67.03;58.37;;;9.60;99.90;;;;;;5010412;28;20457;-71
2022/01/01 00:12:51;;;;;;;76.97;64.17;;;9.60;99.90;;;;;;5009869;28;20568;-71
2022/01/01 00:15:19;;;;;;;76.40;63.77;;;9.70;99.90;;;;;;5009804;28;20460;-70
2022/01/01 00:17:46;;;;;;;76.77;62.37;;;9.60;99.90;;;;;;5009727;28;20980;-71
2022/01/01 00:20:13;;;;;;;78.60;65.07;;;9.60;99.90;;;;;;5010262;28;20446;-69
2022/01/01 00:22:42;;;;;;;78.03;65.93;;;9.70;99.90;;;;;;5012195;28;20533;-71
2022/01/01 00:25:12;;;;;;;98.80;75.70;;;9.60;99.90;;;;;;5009933;28;20454;-71
2022/01/01 00:27:39;;;;;;;87.70;70.10;;;9.60;99.90;;;;;;5013496;28;20467;-70
2022/01/01 00:30:07;;;;;;;82.40;65.30;;;9.70;99.90;;;;;;5015927;28;20839;-73
2022/01/01 00:32:34;;;;;;;80.93;67.30;;;9.70;99.90;;;;;;5009793;28;20465;-69
2022/01/01 00:35:01;;;;;;;73.27;61.00;;;9.70;99.90;;;;;;5009212;28;21086;-70
2022/01/01 00:37:28;;;;;;;79.73;63.97;;;9.80;99.90;;;;;;5008104;28;20609;-71
2022/01/01 00:39:55;;;;;;;90.00;72.63;;;9.80;99.90;;;;;;5015277;28;20446;-71
2022/01/01 00:42:24;;;;;;;93.20;76.27;;;9.80;99.90;;;;;;5009074;28;20474;-71
2022/01/01 00:44:52;;;;;;;98.13;77.20;;;9.80;99.90;;;;;;5013127;28;20537;-71
2022/01/01 00:47:19;;;;;;;102.93;81.13;;;9.90;99.90;;;;;;5010521;28;20470;-69
2022/01/01 00:49:46;;;;;;;98.53;77.57;;;9.90;99.90;;;;;;5010828;28;20454;-71
2022/01/01 00:52:13;;;;;;;104.50;88.77;;;9.90;99.90;;;;;;5018115;28;20460;-71
2022/01/01 00:54:41;;;;;;;101.37;85.23;;;9.90;99.90;;;;;;5010589;28;20895;-71
2022/01/01 00:57:07;;;;;;;105.80;89.70;;;9.90;99.90;;;;;;5014943;28;20470;-70
2022/01/01 00:59:36;;;;;;;97.03;81.80;;;9.90;99.90;;;;;;5016690;28;20446;-70
2022/01/01 01:02:03;;;;;;;95.10;83.40;;;9.80;99.90;;;;;;5015784;28;20450;-70
2022/01/01 01:04:30;;;;;;;94.37;80.50;;;9.80;99.90;;;;;;5009971;28;20461;-69
2022/01/01 01:06:57;;;;;;;106.00;84.30;;;9.80;99.90;;;;;;5005597;28;20928;-70
2022/01/01 01:09:24;;;;;;;106.87;88.47;;;9.80;99.90;;;;;;5008289;28;20853;-69
2022/01/01 01:11:52;;;;;;;100.73;87.73;;;9.80;99.90;;;;;;5010867;28;20454;-70
2022/01/01 01:14:22;;;;;;;104.07;91.47;;;9.80;99.90;;;;;;5007639;28;20435;-70
2022/01/01 01:16:52;;;;;;;110.23;88.07;;;9.70;99.90;;;;;;5007954;28;21104;-69
2022/01/01 01:19:20;;;;;;;94.80;84.40;;;9.70;99.90;;;;;;5007534;28;21417;-70
2022/01/01 01:21:49;;;;;;;91.47;78.07;;;9.70;99.90;;;;;;5007456;28;21004;-69
2022/01/01 01:24:17;;;;;;;93.37;76.93;;;9.80;99.90;;;;;;5007699;28;20466;-70
2022/01/01 01:26:48;;;;;;;95.93;76.77;;;9.80;99.90;;;;;;5008253;28;20549;-70
2022/01/01 01:29:15;;;;;;;82.17;71.77;;;9.80;99.90;;;;;;5018838;28;20454;-70
2022/01/01 01:31:42;;;;;;;85.83;71.90;;;9.80;99.90;;;;;;5007409;28;20450;-69
2022/01/01 01:34:10;;;;;;;95.40;83.77;;;9.80;99.90;;;;;;5006574;28;20986;-70
2022/01/01 01:36:38;;;;;;;98.90;87.90;;;9.80;99.90;;;;;;5006468;28;20485;-70
2022/01/01 01:39:05;;;;;;;105.47;93.70;;;9.80;99.90;;;;;;5006924;28;20540;-70
2022/01/01 01:41:32;;;;;;;94.33;81.90;;;9.80;99.90;;;;;;5007849;28;20667;-69
2022/01/01 01:44:00;;;;;;;93.10;82.50;;;9.80;99.90;;;;;;5017537;28;20434;-69
2022/01/01 01:46:26;;;;;;;95.57;76.70;;;9.80;99.90;;;;;;5018570;28;21072;-69
2022/01/01 01:48:54;;;;;;;95.40;78.10;;;9.80;99.90;;;;;;5019395;28;20851;-69
2022/01/01 01:51:22;;;;;;;94.87;80.27;;;9.80;99.90;;;;;;5018409;28;20504;-70
2022/01/01 01:53:49;;;;;;;96.57;79.47;;;9.80;99.90;;;;;;5020857;28;20450;-70
2022/01/01 01:56:16;;;;;;;92.93;78.20;;;9.90;99.90;;;;;;5019303;28;20452;-69
2022/01/01 01:58:44;;;;;;;86.83;74.10;;;9.90;99.90;;;;;;5020488;28;20484;-69
2022/01/01 02:01:20;;;;;;;88.47;74.63;;;9.90;99.90;;;;;;5019994;28;20476;-69
2022/01/01 02:03:48;;;;;;;85.33;67.40;;;9.90;99.90;;;;;;5019024;28;20450;-69
2022/01/01 02:06:16;;;;;;;71.50;63.33;;;10.00;99.90;;;;;;5019730;28;20821;-71
2022/01/01 02:08:49;;;;;;;76.60;66.23;;;9.90;99.90;;;;;;5019900;28;20442;-69
2022/01/01 02:11:18;;;;;;;89.17;68.80;;;9.90;99.90;;;;;;5020840;28;20974;-68
2022/01/01 02:14:01;;;;;;;78.27;65.50;;;9.90;99.90;;;;;;5020518;28;20538;-69
2022/01/01 02:19:12;;;;;;;76.40;62.30;;;10.00;99.90;;;;;;5010228;28;20982;-69
2022/01/01 02:21:40;;;;;;;72.67;61.60;;;10.00;99.90;;;;;;5019918;28;20465;-69
2022/01/01 02:24:08;;;;;;;73.03;61.43;;;9.90;99.90;;;;;;5018977;28;20450;-69
2022/01/01 02:26:35;;;;;;;73.10;59.77;;;9.90;99.90;;;;;;5020399;28;20466;-69
2022/01/01 02:29:04;;;;;;;71.87;59.70;;;9.90;99.90;;;;;;5020333;28;20451;-69
2022/01/01 02:31:33;;;;;;;67.20;58.23;;;9.90;99.90;;;;;;5020983;28;20446;-69
2022/01/01 02:34:04;;;;;;;70.90;60.77;;;9.90;99.90;;;;;;5021495;28;20457;-69
2022/01/01 02:36:33;;;;;;;88.87;71.73;;;10.00;99.90;;;;;;5020628;28;20572;-69
2022/01/01 02:39:02;;;;;;;85.97;73.67;;;9.90;99.90;;;;;;5014832;28;20482;-69
2022/01/01 02:41:30;;;;;;;106.43;85.77;;;9.90;99.90;;;;;;5003720;28;20446;-69
2022/01/01 02:43:57;;;;;;;100.03;82.77;;;9.80;99.90;;;;;;5005344;28;20434;-69
2022/01/01 02:46:23;;;;;;;95.50;76.53;;;9.90;99.90;;;;;;5006644;28;20442;-69
2022/01/01 02:48:50;;;;;;;89.80;76.33;;;9.90;99.90;;;;;;5006989;28;20450;-69
2022/01/01 02:51:17;;;;;;;114.90;83.73;;;9.90;99.90;;;;;;5006062;28;21168;-69
2022/01/01 02:53:45;;;;;;;97.87;80.30;;;9.80;99.90;;;;;;5008946;28;21229;-69
2022/01/01 02:56:13;;;;;;;92.47;76.50;;;9.80;99.90;;;;;;5012086;28;20978;-69
2022/01/01 02:58:42;;;;;;;92.07;75.90;;;9.80;99.90;;;;;;5016277;28;20478;-69
2022/01/01 03:01:09;;;;;;;91.30;73.57;;;9.90;99.90;;;;;;5012851;28;20458;-70
2022/01/01 03:03:36;;;;;;;84.83;72.90;;;9.90;99.90;;;;;;5013443;28;20497;-69
2022/01/01 03:06:03;;;;;;;91.87;69.10;;;9.90;99.90;;;;;;5009913;28;20454;-70
2022/01/01 03:08:30;;;;;;;74.97;63.97;;;9.90;99.90;;;;;;5006837;28;20533;-69
2022/01/01 03:10:57;;;;;;;78.27;61.20;;;9.80;99.90;;;;;;5005795;28;20484;-70
2022/01/01 03:13:25;;;;;;;73.37;61.77;;;9.80;99.90;;;;;;5006063;28;20454;-68
2022/01/01 03:15:52;;;;;;;75.53;61.63;;;9.90;99.90;;;;;;5015167;28;20458;-69
2022/01/01 03:18:19;;;;;;;84.07;72.73;;;9.90;99.90;;;;;;5019277;28;20477;-69
2022/01/01 03:20:45;;;;;;;78.73;70.13;;;9.80;99.90;;;;;;5019312;28;20947;-70
2022/01/01 03:23:12;;;;;;;82.73;66.60;;;9.90;99.90;;;;;;5006073;28;20533;-69
2022/01/01 03:25:39;;;;;;;72.20;58.70;;;9.90;99.90;;;;;;5005984;28;20485;-69
2022/01/01 03:28:06;;;;;;;66.57;56.67;;;9.90;99.90;;;;;;5017447;28;20466;-69
2022/01/01 03:30:35;;;;;;;72.93;61.03;;;9.90;99.90;;;;;;5013875;28;20460;-69
2022/01/01 03:33:01;;;;;;;87.77;67.07;;;9.80;99.90;;;;;;5009860;28;20450;-69
2022/01/01 03:35:29;;;;;;;74.47;55.70;;;9.90;99.90;;;;;;5008713;28;20489;-69
2022/01/01 03:37:55;;;;;;;65.57;53.20;;;9.90;99.90;;;;;;5009247;28;20474;-69
2022/01/01 03:40:22;;;;;;;60.63;52.33;;;9.90;99.90;;;;;;5009176;28;20445;-69
2022/01/01 03:42:49;;;;;;;57.97;50.90;;;9.90;99.90;;;;;;5009656;28;20460;-69
2022/01/01 03:45:16;;;;;;;60.67;52.27;;;9.90;99.90;;;;;;5008397;28;20464;-69
2022/01/01 03:47:45;;;;;;;58.90;50.77;;;9.90;99.90;;;;;;5009626;28;20840;-71
2022/01/01 03:50:13;;;;;;;57.73;49.50;;;9.90;99.90;;;;;;5010446;28;20450;-70
2022/01/01 03:52:42;;;;;;;63.20;50.90;;;9.90;99.90;;;;;;5009595;28;20513;-69
2022/01/01 03:55:10;;;;;;;60.40;50.23;;;9.90;99.90;;;;;;5010354;28;20833;-70
2022/01/01 03:57:37;;;;;;;56.77;46.00;;;9.90;99.90;;;;;;5010590;28;20465;-69
2022/01/01 04:00:07;;;;;;;58.50;47.57;;;9.90;99.90;;;;;;5010291;28;20486;-70
2022/01/01 04:02:33;;;;;;;56.90;45.27;;;9.90;99.90;;;;;;5010791;28;20546;-69
2022/01/01 04:05:03;;;;;;;55.93;45.67;;;9.80;99.90;;;;;;5010773;28;20478;-69
2022/01/01 04:07:30;;;;;;;56.37;46.00;;;9.80;99.90;;;;;;5010895;28;20508;-70
2022/01/01 04:09:57;;;;;;;54.93;44.17;;;9.80;99.90;;;;;;5010987;28;20535;-69
2022/01/01 04:12:24;;;;;;;49.10;40.90;;;9.80;99.90;;;;;;5011000;28;20456;-70
2022/01/01 04:14:51;;;;;;;48.63;42.37;;;9.80;99.90;;;;;;5011054;28;20446;-69
2022/01/01 04:17:18;;;;;;;47.43;39.53;;;9.80;99.90;;;;;;5011298;28;21187;-69
2022/01/01 04:19:45;;;;;;;48.67;40.57;;;9.80;99.90;;;;;;5010736;28;20487;-70
2022/01/01 04:22:15;;;;;;;46.60;37.97;;;9.80;99.90;;;;;;5011544;28;21007;-69
2022/01/01 04:24:42;;;;;;;45.97;37.10;;;9.80;99.90;;;;;;5011340;28;21011;-69
2022/01/01 04:27:10;;;;;;;45.90;35.40;;;9.90;99.90;;;;;;5010376;28;20481;-69
2022/01/01 04:29:38;;;;;;;46.03;37.60;;;9.80;99.90;;;;;;5010056;28;20449;-70
2022/01/01 04:32:05;;;;;;;44.57;36.33;;;9.80;99.90;;;;;;5010125;28;20466;-69
2022/01/01 04:34:32;;;;;;;46.20;35.07;;;9.80;99.90;;;;;;5009445;28;20454;-69
2022/01/01 04:37:02;;;;;;;41.63;34.40;;;9.90;99.90;;;;;;5010201;28;20478;-70
2022/01/01 04:39:30;;;;;;;39.90;33.50;;;9.80;99.90;;;;;;5009651;28;20517;-70
2022/01/01 04:41:57;;;;;;;47.17;34.30;;;9.80;99.90;;;;;;5010247;28;20825;-70
2022/01/01 04:44:24;;;;;;;42.17;34.63;;;9.80;99.90;;;;;;5009984;28;20905;-71
2022/01/01 04:46:51;;;;;;;41.50;34.17;;;9.70;99.90;;;;;;5009427;28;20552;-69
2022/01/01 04:49:18;;;;;;;45.00;37.80;;;9.60;99.90;;;;;;5010127;28;20460;-70
2022/01/01 04:51:45;;;;;;;43.00;36.13;;;9.50;99.90;;;;;;5009651;28;20952;-70
2022/01/01 04:54:15;;;;;;;39.53;32.50;;;9.50;99.90;;;;;;5009941;28;21128;-69
2022/01/01 04:56:45;;;;;;;43.33;35.43;;;9.40;99.90;;;;;;5009203;28;20462;-70
2022/01/01 04:59:13;;;;;;;38.50;31.03;;;9.40;99.90;;;;;;5009708;28;20485;-70
2022/01/01 05:01:40;;;;;;;38.80;29.90;;;9.30;99.90;;;;;;5009409;28;21055;-70
2022/01/01 05:04:07;;;;;;;38.53;29.60;;;9.10;99.90;;;;;;5009492;28;20442;-68
2022/01/01 05:06:34;;;;;;;37.70;29.60;;;9.00;99.90;;;;;;5009178;28;21003;-69
2022/01/01 05:09:02;;;;;;;40.27;30.83;;;8.90;99.90;;;;;;5009452;28;20456;-68
2022/01/01 05:11:29;;;;;;;39.47;29.47;;;8.80;99.90;;;;;;5009611;28;20482;-68
2022/01/01 05:13:57;;;;;;;34.73;26.07;;;8.70;99.90;;;;;;5009067;28;20455;-69
2022/01/01 05:16:24;;;;;;;34.27;27.17;;;8.60;99.90;;;;;;5009256;28;20464;-70
2022/01/01 05:18:51;;;;;;;37.10;28.00;;;8.50;99.90;;;;;;5009085;28;20474;-69
2022/01/01 05:21:18;;;;;;;34.60;27.30;;;8.40;99.90;;;;;;5009080;28;20537;-69
2022/01/01 05:23:45;;;;;;;35.17;26.43;;;8.30;99.90;;;;;;5009253;28;21003;-70
2022/01/01 05:26:12;;;;;;;34.67;27.93;;;8.40;99.90;;;;;;5008921;28;20459;-71
2022/01/01 05:28:39;;;;;;;31.90;25.87;;;8.30;99.90;;;;;;5009280;28;20557;-70
2022/01/01 05:31:07;;;;;;;34.63;27.40;;;8.20;99.90;;;;;;5009191;28;20449;-70
2022/01/01 05:33:34;;;;;;;34.83;28.30;;;8.20;99.90;;;;;;5008864;28;20446;-70
2022/01/01 05:36:01;;;;;;;36.77;27.27;;;8.10;99.90;;;;;;5008577;28;20944;-70
2022/01/01 05:38:28;;;;;;;34.80;28.30;;;8.10;99.90;;;;;;5008513;28;20470;-71
2022/01/01 05:40:55;;;;;;;36.17;27.60;;;8.00;99.90;;;;;;5008417;28;20533;-71
2022/01/01 05:43:22;;;;;;;40.30;28.50;;;8.00;99.90;;;;;;5008921;28;20442;-70
2022/01/01 05:45:49;;;;;;;32.67;27.20;;;8.00;99.90;;;;;;5008273;28;20456;-70
2022/01/01 05:48:18;;;;;;;33.17;27.13;;;8.00;99.90;;;;;;5008712;28;20546;-70
2022/01/01 05:50:45;;;;;;;38.07;27.93;;;7.90;99.90;;;;;;5008352;28;20446;-71
2022/01/01 05:53:11;;;;;;;33.27;26.23;;;7.90;99.90;;;;;;5008434;28;20457;-71
2022/01/01 05:55:38;;;;;;;34.50;26.57;;;7.80;99.90;;;;;;5008287;28;20553;-70
2022/01/01 05:58:06;;;;;;;33.00;27.07;;;7.90;99.90;;;;;;5008345;28;20474;-71
2022/01/01 06:00:34;;;;;;;33.37;24.77;;;7.80;99.90;;;;;;5008625;28;20486;-71
2022/01/01 06:03:01;;;;;;;38.67;29.57;;;7.80;99.90;;;;;;5008423;28;20469;-69
2022/01/01 06:05:30;;;;;;;36.50;28.23;;;7.80;99.90;;;;;;5008118;28;20446;-70
2022/01/01 06:07:57;;;;;;;36.13;28.20;;;7.90;99.90;;;;;;5008078;28;20471;-70
2022/01/01 06:10:25;;;;;;;40.83;28.83;;;8.00;99.90;;;;;;5007992;28;20462;-70
2022/01/01 06:12:52;;;;;;;33.77;26.03;;;8.10;99.90;;;;;;5008018;28;20966;-70
2022/01/01 06:15:19;;;;;;;34.87;26.00;;;8.20;99.90;;;;;;5008494;28;20862;-69
2022/01/01 06:17:46;;;;;;;32.70;25.80;;;8.20;99.90;;;;;;5008079;28;20473;-71
2022/01/01 06:20:13;;;;;;;32.20;25.23;;;8.30;99.90;;;;;;5008113;28;20478;-70
2022/01/01 06:22:42;;;;;;;35.37;27.17;;;8.30;99.90;;;;;;5007842;28;20446;-71
2022/01/01 06:25:10;;;;;;;34.10;26.57;;;8.30;99.90;;;;;;5007327;28;20500;-70
2022/01/01 06:27:37;;;;;;;37.47;26.53;;;8.40;99.90;;;;;;5007751;28;20996;-70
2022/01/01 06:30:04;;;;;;;30.70;24.00;;;8.40;99.90;;;;;;5007792;28;20451;-69
2022/01/01 06:32:32;;;;;;;26.50;23.07;;;8.50;99.90;;;;;;5007701;28;20815;-70
2022/01/01 06:34:59;;;;;;;27.57;22.07;;;8.60;99.90;;;;;;5007174;28;21298;-69
2022/01/01 06:37:26;;;;;;;28.30;22.80;;;8.60;99.90;;;;;;5007288;28;20481;-70
2022/01/01 06:39:54;;;;;;;28.77;23.03;;;8.60;99.90;;;;;;5007321;28;21012;-70
2022/01/01 06:42:21;;;;;;;28.60;22.23;;;8.70;99.90;;;;;;5007532;28;20975;-70
2022/01/01 06:44:48;;;;;;;26.20;21.13;;;8.80;99.90;;;;;;5007120;28;20955;-70
2022/01/01 06:47:15;;;;;;;27.77;21.60;;;8.80;99.90;;;;;;5007188;28;20478;-71
2022/01/01 06:49:41;;;;;;;25.30;21.83;;;8.80;99.90;;;;;;5007451;28;20452;-70
2022/01/01 06:52:08;;;;;;;28.00;20.63;;;8.80;99.90;;;;;;5007186;28;21016;-69
2022/01/01 06:54:35;;;;;;;25.63;20.83;;;8.80;99.90;;;;;;5007391;28;20462;-70
2022/01/01 06:57:04;;;;;;;23.80;20.83;;;8.80;99.90;;;;;;5007277;28;20459;-70
2022/01/01 06:59:31;;;;;;;24.67;19.70;;;8.80;99.90;;;;;;5007298;28;20496;-70
2022/01/01 07:01:58;;;;;;;26.80;22.37;;;8.80;99.90;;;;;;5007436;28;20461;-70
2022/01/01 07:04:25;;;;;;;26.60;21.10;;;8.70;99.90;;;;;;5009710;28;20456;-69
2022/01/01 07:06:52;;;;;;;22.10;19.23;;;8.70;99.90;;;;;;5010667;28;20469;-70
2022/01/01 07:09:19;;;;;;;26.30;19.30;;;8.70;99.90;;;;;;5011023;28;20832;-69
2022/01/01 07:11:45;;;;;;;24.00;19.87;;;8.70;99.90;;;;;;5011079;28;20450;-70
2022/01/01 07:14:14;;;;;;;24.13;18.87;;;8.70;99.90;;;;;;5011052;28;20441;-70
2022/01/01 07:16:40;;;;;;;25.37;19.37;;;8.70;99.90;;;;;;5010646;28;20579;-70
2022/01/01 07:19:07;;;;;;;25.30;19.60;;;8.60;99.90;;;;;;5010839;28;20446;-71
2022/01/01 07:21:34;;;;;;;25.03;19.20;;;8.60;99.90;;;;;;5011262;28;20471;-70
2022/01/01 07:24:01;;;;;;;22.97;18.53;;;8.70;99.90;;;;;;5010808;28;21016;-70
2022/01/01 07:26:28;;;;;;;23.60;18.30;;;8.70;99.90;;;;;;5010630;28;20470;-70
2022/01/01 07:28:54;;;;;;;20.80;15.80;;;8.80;99.90;;;;;;5010793;28;20477;-70
2022/01/01 07:31:23;;;;;;;21.63;18.13;;;8.80;99.90;;;;;;5010606;28;20456;-69
2022/01/01 07:33:50;;;;;;;23.27;18.57;;;8.80;99.90;;;;;;5010912;28;20557;-70
2022/01/01 07:36:16;;;;;;;20.60;17.93;;;8.90;99.90;;;;;;5010569;28;20454;-70
2022/01/01 07:38:43;;;;;;;21.10;18.03;;;9.00;99.90;;;;;;5010702;28;20462;-71
2022/01/01 07:41:10;;;;;;;20.40;17.43;;;9.00;99.90;;;;;;5010938;28;20486;-71
2022/01/01 07:43:38;;;;;;;24.00;17.23;;;9.00;99.90;;;;;;5011296;28;20469;-71
2022/01/01 07:46:05;;;;;;;23.40;17.90;;;9.00;99.90;;;;;;5011366;28;20467;-70
2022/01/01 07:48:33;;;;;;;23.80;18.20;;;9.10;99.90;;;;;;5012266;28;20466;-71
2022/01/01 07:51:00;;;;;;;24.30;18.83;;;9.10;99.90;;;;;;5010486;28;20537;-71
2022/01/01 07:53:27;;;;;;;20.60;16.67;;;9.20;99.90;;;;;;5010291;28;20541;-70
2022/01/01 07:55:54;;;;;;;18.10;15.73;;;9.20;99.90;;;;;;5009957;28;20500;-71
2022/01/01 07:58:21;;;;;;;17.50;15.60;;;9.20;99.90;;;;;;5010012;28;20472;-70
2022/01/01 08:00:47;;;;;;;18.70;14.40;;;9.20;99.90;;;;;;5010146;28;20482;-70
2022/01/01 08:03:14;;;;;;;18.43;13.40;;;9.20;99.90;;;;;;5010158;28;20830;-70
2022/01/01 08:05:42;;;;;;;15.50;13.73;;;9.20;99.90;;;;;;5009651;28;20449;-70
2022/01/01 08:08:09;;;;;;;16.73;12.67;;;9.20;99.90;;;;;;5009831;28;20477;-70
2022/01/01 08:10:37;;;;;;;16.43;12.83;;;9.30;99.90;;;;;;5009984;28;20997;-70
2022/01/01 08:13:06;;;;;;;17.17;12.50;;;9.40;99.90;;;;;;5009813;28;20497;-70
2022/01/01 08:15:33;;;;;;;18.50;11.90;;;9.40;99.90;;;;;;5009631;28;20536;-70
2022/01/01 08:18:00;;;;;;;13.03;9.93;;;9.50;99.90;;;;;;5009866;28;20556;-70
2022/01/01 08:20:27;;;;;;;13.70;10.83;;;9.60;99.90;;;;;;5009941;28;20482;-69
2022/01/01 08:22:55;;;;;;;13.30;10.30;;;9.70;99.90;;;;;;5009857;28;20541;-69
2022/01/01 08:25:24;;;;;;;15.23;10.73;;;9.60;99.90;;;;;;5009354;28;20541;-70
2022/01/01 08:27:51;;;;;;;16.87;14.50;;;9.60;99.90;;;;;;5009497;28;20478;-70
2022/01/01 08:30:18;;;;;;;19.10;13.53;;;9.50;99.90;;;;;;5009695;28;20476;-70
2022/01/01 08:32:45;;;;;;;17.97;14.57;;;9.50;99.90;;;;;;5009664;28;20457;-71
2022/01/01 08:35:12;;;;;;;16.03;12.37;;;9.50;99.90;;;;;;5009166;28;20485;-69
2022/01/01 08:37:39;;;;;;;14.60;12.50;;;9.70;99.90;;;;;;5009376;28;20485;-71
2022/01/01 08:40:09;;;;;;;17.43;12.23;;;9.80;99.90;;;;;;5009543;28;20906;-70
2022/01/01 08:42:36;;;;;;;15.57;11.03;;;9.90;99.90;;;;;;5009569;28;21142;-70
2022/01/01 08:45:03;;;;;;;15.63;12.50;;;10.10;99.90;;;;;;5009248;28;20444;-69
2022/01/01 08:47:30;;;;;;;13.93;11.07;;;10.30;99.90;;;;;;5009080;28;20476;-70
2022/01/01 08:49:57;;;;;;;13.60;10.50;;;10.60;99.90;;;;;;5009236;28;20443;-69
2022/01/01 08:52:25;;;;;;;11.53;9.80;;;10.80;99.90;;;;;;5009387;28;20481;-70
2022/01/01 08:54:56;;;;;;;10.97;8.77;;;11.00;99.90;;;;;;5008653;28;20447;-70
2022/01/01 08:57:24;;;;;;;10.37;8.33;;;11.20;99.90;;;;;;5009246;28;20470;-70
2022/01/01 08:59:51;;;;;;;9.90;8.03;;;11.50;99.90;;;;;;5008679;28;20486;-69
2022/01/01 09:02:18;;;;;;;8.83;7.33;;;11.70;99.90;;;;;;5009070;28;20533;-70
2022/01/01 09:04:45;;;;;;;10.93;8.00;;;11.80;99.90;;;;;;5008593;28;20457;-70
2022/01/01 09:07:13;;;;;;;9.40;7.77;;;11.80;99.90;;;;;;5008614;28;20481;-71
2022/01/01 09:09:40;;;;;;;8.80;7.90;;;11.90;99.90;;;;;;5008824;28;20893;-70
2022/01/01 09:12:08;;;;;;;9.17;7.60;;;11.90;99.90;;;;;;5008825;28;20464;-70
2022/01/01 09:14:37;;;;;;;9.93;8.10;;;11.90;99.90;;;;;;5008594;28;21312;-70
2022/01/01 09:17:05;;;;;;;12.07;7.90;;;12.10;99.90;;;;;;5008957;28;20466;-70
2022/01/01 09:19:32;;;;;;;12.27;7.97;;;12.10;99.90;;;;;;5008891;28;20434;-70
2022/01/01 09:21:59;;;;;;;10.70;9.10;;;12.10;99.90;;;;;;5008727;28;20494;-69
2022/01/01 09:24:26;;;;;;;12.80;8.20;;;12.00;99.90;;;;;;5008746;28;20442;-70
2022/01/01 09:26:53;;;;;;;11.17;8.07;;;11.90;99.90;;;;;;5007886;28;21011;-70
2022/01/01 09:29:20;;;;;;;9.77;8.13;;;11.80;99.90;;;;;;5008552;28;20546;-70
2022/01/01 09:31:48;;;;;;;9.10;7.97;;;11.60;99.90;;;;;;5008607;28;20450;-70
2022/01/01 09:34:15;;;;;;;11.17;9.47;;;11.50;99.90;;;;;;5008382;28;20468;-72
2022/01/01 09:36:42;;;;;;;10.03;7.97;;;11.40;99.90;;;;;;5007185;28;21038;-72
2022/01/01 09:39:09;;;;;;;12.23;8.47;;;11.30;99.90;;;;;;5007975;28;20454;-73
2022/01/01 09:41:40;;;;;;;12.50;8.57;;;11.30;99.90;;;;;;5007664;28;20897;-72
2022/01/01 09:44:11;;;;;;;11.40;9.07;;;11.30;99.90;;;;;;5007545;28;20549;-72
2022/01/01 09:46:40;;;;;;;12.27;8.40;;;11.20;99.90;;;;;;5007342;28;20469;-72
2022/01/01 09:49:08;;;;;;;11.07;8.77;;;11.30;99.90;;;;;;5007588;28;20545;-73
2022/01/01 09:51:35;;;;;;;9.50;7.97;;;11.20;99.90;;;;;;5007727;28;21116;-73
2022/01/01 09:54:02;;;;;;;10.37;8.50;;;11.20;99.90;;;;;;5007987;28;20473;-73
2022/01/01 09:56:29;;;;;;;9.03;7.43;;;11.30;99.90;;;;;;5007483;28;20951;-73
2022/01/01 09:58:56;;;;;;;9.33;8.40;;;11.30;99.90;;;;;;5007727;28;20540;-73
2022/01/01 10:01:23;;;;;;;10.60;8.10;;;11.30;99.90;;;;;;5007712;28;20482;-73
2022/01/01 10:03:51;;;;;;;8.87;7.90;;;11.40;99.90;;;;;;5007929;28;20450;-73
2022/01/01 10:06:21;;;;;;;10.13;8.27;;;11.40;99.90;;;;;;5007211;28;20461;-73
2022/01/01 10:08:50;;;;;;;9.50;8.30;;;11.30;99.90;;;;;;5007812;28;20454;-72
2022/01/01 10:11:18;;;;;;;11.00;8.70;;;11.40;99.90;;;;;;5007897;28;20451;-72
2022/01/01 10:13:46;;;;;;;8.90;7.33;;;11.50;99.90;;;;;;5007860;28;20541;-73
2022/01/01 10:16:14;;;;;;;10.70;8.30;;;11.50;99.90;;;;;;5007568;28;20493;-72
2022/01/01 10:18:43;;;;;;;10.43;7.80;;;11.70;99.90;;;;;;5007349;28;20450;-69
2022/01/01 10:21:12;;;;;;;11.50;7.40;;;12.10;99.90;;;;;;5005890;28;20492;-72
2022/01/01 10:23:43;;;;;;;9.23;7.27;;;12.30;99.90;;;;;;5002151;28;20478;-74
2022/01/01 10:29:08;;;;;;;7.60;6.80;;;13.50;99.90;;;;;;5002946;28;21199;-70
2022/01/01 10:31:36;;;;;;;9.00;6.50;;;14.90;99.90;;;;;;5005757;28;21200;-70
2022/01/01 10:34:11;;;;;;;7.10;5.93;;;16.00;99.90;;;;;;4969893;28;1095999;-70
2022/01/01 10:36:37;;;;;;;9.67;6.50;;;17.00;99.90;;;;;;5001840;28;20217;-71
2022/01/01 10:39:14;;;;;;;8.37;6.93;;;17.70;99.90;;;;;;5013114;28;20450;-70
2022/01/01 10:41:46;;;;;;;8.23;6.57;;;18.30;99.90;;;;;;5015981;28;20488;-71
2022/01/01 10:44:13;;;;;;;7.83;5.40;;;18.80;99.90;;;;;;5014518;28;20453;-71
2022/01/01 10:46:41;;;;;;;7.17;5.80;;;19.00;99.90;;;;;;5013618;28;20552;-70
2022/01/01 10:49:35;;;;;;;7.73;6.37;;;19.00;99.90;;;;;;5005516;28;20459;-70
2022/01/01 10:52:30;;;;;;;7.73;6.13;;;18.60;99.90;;;;;;5008135;28;20450;-70
2022/01/01 10:55:00;;;;;;;7.00;5.60;;;17.90;99.90;;;;;;4964760;28;20492;-70
2022/01/01 10:57:33;;;;;;;7.60;6.53;;;17.20;99.90;;;;;;5007525;28;20536;-71
2022/01/01 11:00:12;;;;;;;8.13;6.77;;;16.50;99.90;;;;;;5002954;28;20996;-69
2022/01/01 11:02:41;;;;;;;7.23;6.30;;;15.80;99.90;;;;;;5004162;28;20513;-69
2022/01/01 11:05:08;;;;;;;7.00;6.30;;;15.60;99.90;;;;;;5005509;28;20457;-70
2022/01/01 11:07:36;;;;;;;7.23;5.50;;;15.20;99.90;;;;;;5006158;28;20470;-68
2022/01/01 11:10:05;;;;;;;7.80;6.70;;;15.00;99.90;;;;;;5006423;28;20462;-68
2022/01/01 11:12:32;;;;;;;7.60;6.50;;;15.00;99.90;;;;;;5006983;28;20540;-68
2022/01/01 11:15:03;;;;;;;8.60;6.40;;;14.80;99.90;;;;;;5005189;28;21078;-68
2022/01/01 11:17:31;;;;;;;9.23;6.40;;;14.70;99.90;;;;;;5005413;28;21318;-68
2022/01/01 11:20:00;;;;;;;7.07;6.00;;;14.70;99.90;;;;;;5010100;28;20450;-67
2022/01/01 11:22:27;;;;;;;8.43;6.13;;;14.60;99.90;;;;;;5006654;28;20509;-68
2022/01/01 11:24:56;;;;;;;7.03;6.10;;;14.60;99.90;;;;;;5005668;28;20456;-67
2022/01/01 11:27:25;;;;;;;7.73;5.90;;;14.70;99.90;;;;;;5004927;28;20493;-68
2022/01/01 11:29:53;;;;;;;8.30;6.27;;;14.70;99.90;;;;;;5005234;28;20446;-68
2022/01/01 11:32:23;;;;;;;11.93;9.37;;;14.70;99.90;;;;;;5008653;28;20829;-68
2022/01/01 11:34:52;;;;;;;10.87;9.13;;;14.60;99.90;;;;;;5004770;28;20458;-68
2022/01/01 11:37:22;;;;;;;10.83;8.57;;;14.60;99.90;;;;;;5005614;28;21010;-71
2022/01/01 11:39:54;;;;;;;9.43;8.13;;;14.60;99.90;;;;;;5001722;28;20450;-67
2022/01/01 11:42:22;;;;;;;11.37;8.20;;;14.70;99.90;;;;;;5008775;28;20482;-67
2022/01/01 11:44:53;;;;;;;9.67;6.90;;;14.70;99.90;;;;;;5008391;28;20465;-67
2022/01/01 11:47:22;;;;;;;8.30;5.97;;;14.70;99.90;;;;;;5005192;28;20470;-67
2022/01/01 11:49:50;;;;;;;8.17;7.07;;;14.70;99.90;;;;;;5004082;28;21026;-67
2022/01/01 11:52:39;;;;;;;8.43;6.87;;;14.70;99.90;;;;;;5006739;28;20530;-68
2022/01/01 11:55:11;;;;;;;7.93;6.07;;;14.60;99.90;;;;;;5000661;28;20454;-68
2022/01/01 11:57:39;;;;;;;8.10;5.90;;;14.50;99.90;;;;;;5006192;28;20483;-69
2022/01/01 12:00:14;;;;;;;7.77;6.27;;;14.50;99.90;;;;;;5007042;28;20462;-68
2022/01/01 12:02:46;;;;;;;7.97;6.30;;;14.40;99.90;;;;;;5003450;28;20569;-68
2022/01/01 12:05:20;;;;;;;6.70;5.90;;;14.40;99.90;;;;;;5003886;28;20458;-68
2022/01/01 12:07:52;;;;;;;8.90;7.53;;;14.40;99.90;;;;;;5007174;28;20569;-68
2022/01/01 12:10:22;;;;;;;6.40;4.97;;;14.40;99.90;;;;;;5003417;28;20458;-68
2022/01/01 12:12:51;;;;;;;8.10;6.07;;;14.40;99.90;;;;;;5015600;28;21262;-68
2022/01/01 12:15:24;;;;;;;8.27;6.60;;;14.40;99.90;;;;;;5009909;28;20463;-68
2022/01/01 12:17:53;;;;;;;7.60;5.60;;;14.40;99.90;;;;;;5011432;28;20480;-68
2022/01/01 12:20:24;;;;;;;7.67;5.53;;;14.40;99.90;;;;;;5009610;28;21015;-68
2022/01/01 12:22:52;;;;;;;6.73;5.60;;;14.40;99.90;;;;;;5009159;28;20488;-69
2022/01/01 12:25:23;;;;;;;7.37;5.03;;;14.40;99.90;;;;;;5011040;28;20454;-68
2022/01/01 12:27:51;;;;;;;7.33;5.07;;;14.40;99.90;;;;;;5010409;28;21019;-68
2022/01/01 12:30:34;;;;;;;7.03;5.47;;;14.50;99.90;;;;;;5010184;28;20458;-68
2022/01/01 12:33:01;;;;;;;7.60;5.97;;;14.50;99.90;;;;;;5010316;28;20456;-68
2022/01/01 12:35:56;;;;;;;7.53;6.47;;;14.60;99.90;;;;;;5009826;28;20463;-68
2022/01/01 12:38:26;;;;;;;7.03;5.43;;;14.60;99.90;;;;;;4974681;28;20561;-68
2022/01/01 12:41:08;;;;;;;7.97;5.97;;;14.60;99.90;;;;;;5009841;28;20462;-68
2022/01/01 12:43:44;;;;;;;8.40;7.10;;;14.60;99.90;;;;;;5009626;28;20460;-68
2022/01/01 12:46:14;;;;;;;7.33;5.90;;;14.70;99.90;;;;;;5023523;28;20901;-68
2022/01/01 12:48:42;;;;;;;7.20;5.67;;;14.70;99.90;;;;;;5003360;28;20863;-68